createdAt,value
2023-07-20T00:02:10.870Z,2.20
2023-07-20T00:04:38.958Z,2.40
2023-07-20T00:07:06.651Z,2.22
2023-07-20T00:09:34.145Z,2.10
2023-07-20T00:12:02.068Z,2.37
2023-07-20T00:14:29.685Z,2.15
2023-07-20T00:16:57.608Z,2.25
2023-07-20T00:19:28.729Z,2.28
2023-07-20T00:21:57.378Z,2.47
2023-07-20T00:24:25.318Z,2.23
2023-07-20T00:26:53.050Z,2.20
2023-07-20T00:29:20.611Z,2.15
2023-07-20T00:31:51.450Z,2.60
2023-07-20T00:34:19.504Z,2.50
2023-07-20T00:36:47.084Z,2.13
2023-07-20T00:39:14.946Z,2.15
2023-07-20T00:41:42.503Z,1.95
2023-07-20T00:44:10.075Z,2.10
2023-07-20T00:46:39.642Z,2.25
2023-07-20T00:49:07.834Z,2.30
2023-07-20T00:51:35.504Z,2.10
2023-07-20T00:54:04.049Z,3.12
2023-07-20T00:56:31.708Z,3.35
2023-07-20T00:58:59.402Z,2.10
2023-07-20T01:01:29.178Z,1.90
2023-07-20T01:03:57.019Z,2.30
2023-07-20T01:06:40.047Z,2.67
2023-07-20T01:09:24.042Z,2.10
2023-07-20T01:12:06.509Z,2.67
2023-07-20T01:14:35.660Z,2.33
2023-07-20T01:17:03.887Z,2.40
2023-07-20T01:19:31.532Z,1.90
2023-07-20T01:22:08.825Z,2.22
2023-07-20T01:24:42.557Z,2.35
2023-07-20T01:27:54.858Z,1.93
2023-07-20T01:30:56.353Z,1.70
2023-07-20T01:33:25.470Z,2.12
2023-07-20T01:35:58.089Z,1.83
2023-07-20T01:38:26.657Z,2.10
2023-07-20T01:40:54.472Z,2.10
2023-07-20T01:43:22.076Z,2.08
2023-07-20T01:45:50.058Z,2.08
2023-07-20T01:48:17.753Z,2.42
2023-07-20T01:50:45.568Z,2.10
2023-07-20T01:53:14.520Z,2.10
2023-07-20T01:55:42.053Z,2.40
2023-07-20T01:58:09.727Z,2.00
2023-07-20T02:00:40.760Z,2.35
2023-07-20T02:03:08.746Z,1.95
2023-07-20T02:05:36.299Z,2.50
2023-07-20T02:08:04.146Z,2.25
2023-07-20T02:10:32.207Z,1.65
2023-07-20T02:13:00.499Z,1.95
2023-07-20T02:15:28.794Z,2.60
2023-07-20T02:17:56.724Z,2.13
2023-07-20T02:20:24.682Z,1.90
2023-07-20T02:22:52.359Z,2.17
2023-07-20T02:25:20.117Z,2.45
2023-07-20T02:27:48.013Z,2.45
2023-07-20T02:30:17.149Z,2.13
2023-07-20T02:32:49.899Z,2.00
2023-07-20T02:35:17.890Z,2.08
2023-07-20T02:37:46.220Z,2.05
2023-07-20T02:40:13.993Z,2.35
2023-07-20T02:42:41.865Z,1.97
2023-07-20T02:45:09.780Z,2.60
2023-07-20T02:47:37.474Z,2.55
2023-07-20T02:50:08.900Z,2.60
2023-07-20T02:52:36.449Z,2.33
2023-07-20T02:55:04.271Z,2.23
2023-07-20T02:57:32.265Z,2.08
2023-07-20T02:59:59.792Z,2.10
2023-07-20T03:02:27.402Z,2.40
2023-07-20T03:04:55.215Z,2.53
2023-07-20T03:10:15.862Z,2.15
2023-07-20T03:12:43.822Z,2.55
2023-07-20T03:15:11.492Z,2.45
2023-07-20T03:17:39.314Z,2.08
2023-07-20T03:20:10.354Z,2.07
2023-07-20T03:22:38.271Z,2.40
2023-07-20T03:25:06.367Z,2.20
2023-07-20T03:27:34.271Z,2.60
2023-07-20T03:30:02.243Z,2.30
2023-07-20T03:32:30.295Z,2.50
2023-07-20T03:34:58.141Z,1.60
2023-07-20T03:37:28.454Z,2.12
2023-07-20T03:39:56.119Z,2.10
2023-07-20T03:42:24.468Z,2.15
2023-07-20T03:44:52.208Z,2.23
2023-07-20T03:47:19.827Z,2.30
2023-07-20T03:49:47.679Z,2.08
2023-07-20T03:52:15.272Z,2.00
2023-07-20T03:54:42.992Z,2.28
2023-07-20T03:57:10.886Z,2.23
2023-07-20T03:59:40.002Z,2.10
2023-07-20T04:02:07.906Z,2.45
2023-07-20T04:04:36.026Z,2.22
2023-07-20T04:07:03.731Z,2.37
2023-07-20T04:09:33.098Z,2.30
2023-07-20T04:12:01.471Z,2.00
2023-07-20T04:14:29.165Z,2.17
2023-07-20T04:16:56.752Z,2.67
2023-07-20T04:19:24.740Z,2.20
2023-07-20T04:21:52.321Z,2.50
2023-07-20T04:24:20.055Z,2.40
2023-07-20T04:26:47.929Z,2.50
2023-07-20T04:29:15.477Z,2.28
2023-07-20T04:31:43.522Z,2.35
2023-07-20T04:34:12.491Z,1.87
2023-07-20T04:36:40.198Z,2.25
2023-07-20T04:39:18.194Z,2.20
2023-07-20T04:41:55.330Z,2.40
2023-07-20T04:44:22.879Z,2.35
2023-07-20T04:46:50.625Z,2.07
2023-07-20T04:49:18.644Z,1.92
2023-07-20T04:51:46.908Z,2.30
2023-07-20T04:54:14.903Z,2.00
2023-07-20T04:56:42.932Z,2.37
2023-07-20T04:59:10.623Z,2.03
2023-07-20T05:01:38.299Z,2.45
2023-07-20T05:04:08.919Z,2.90
2023-07-20T05:06:36.776Z,2.37
2023-07-20T05:09:04.617Z,2.35
2023-07-20T05:11:32.534Z,2.50
2023-07-20T05:14:01.482Z,2.78
2023-07-20T05:16:29.554Z,3.12
2023-07-20T05:18:59.524Z,2.50
2023-07-20T05:21:27.176Z,2.40
2023-07-20T05:23:54.792Z,2.77
2023-07-20T05:26:22.953Z,3.05
2023-07-20T05:28:50.674Z,2.67
2023-07-20T05:31:18.659Z,2.83
2023-07-20T05:33:46.500Z,2.80
2023-07-20T05:36:14.084Z,2.47
2023-07-20T05:38:41.671Z,3.47
2023-07-20T05:41:11.502Z,2.80
2023-07-20T05:43:39.214Z,2.70
2023-07-20T05:46:06.785Z,4.68
2023-07-20T05:48:34.658Z,2.33
2023-07-20T05:51:02.217Z,2.80
2023-07-20T05:53:29.875Z,3.00
2023-07-20T05:55:57.884Z,2.70
2023-07-20T05:58:25.470Z,3.10
2023-07-20T06:00:53.033Z,2.70
2023-07-20T06:03:22.746Z,2.80
2023-07-20T06:05:50.500Z,3.20
2023-07-20T06:08:18.147Z,2.83
2023-07-20T06:10:46.350Z,3.40
2023-07-20T06:13:13.932Z,2.70
2023-07-20T06:15:42.442Z,2.92
2023-07-20T06:18:10.387Z,3.20
2023-07-20T06:20:38.021Z,3.28
2023-07-20T06:23:05.982Z,2.90
2023-07-20T06:25:34.014Z,2.87
2023-07-20T06:28:01.561Z,2.97
2023-07-20T06:30:29.348Z,2.90
2023-07-20T06:32:57.318Z,3.10
2023-07-20T06:35:24.994Z,3.42
2023-07-20T06:37:53.092Z,2.90
2023-07-20T06:45:25.706Z,2.67
2023-07-20T06:47:53.248Z,2.70
2023-07-20T06:50:20.798Z,3.20
2023-07-20T06:52:49.337Z,3.00
2023-07-20T06:55:23.133Z,2.78
2023-07-20T06:57:52.644Z,2.62
2023-07-20T07:00:20.651Z,2.97
2023-07-20T07:02:50.167Z,2.93
2023-07-20T07:05:20.847Z,2.55
2023-07-20T07:07:50.157Z,3.03
2023-07-20T07:10:17.909Z,2.53
2023-07-20T07:12:45.775Z,2.45
2023-07-20T07:15:13.362Z,2.80
2023-07-20T07:17:41.002Z,2.40
2023-07-20T07:20:11.509Z,2.67
2023-07-20T07:22:48.598Z,2.75
2023-07-20T07:25:20.087Z,2.72
2023-07-20T07:27:51.099Z,2.57
2023-07-20T07:30:19.124Z,3.03
2023-07-20T07:32:46.961Z,2.80
2023-07-20T07:35:14.654Z,4.65
2023-07-20T07:37:57.512Z,3.20
2023-07-20T07:40:29.984Z,1.83
2023-07-20T07:42:57.795Z,3.03
2023-07-20T07:45:25.379Z,2.28
2023-07-20T07:47:53.005Z,2.37
2023-07-20T07:50:20.915Z,2.45
2023-07-20T07:52:48.749Z,2.20
2023-07-20T07:55:18.926Z,2.25
2023-07-20T07:57:48.605Z,2.60
2023-07-20T08:00:19.953Z,2.10
2023-07-20T08:02:50.053Z,2.28
2023-07-20T08:05:18.129Z,1.90
2023-07-20T08:07:46.477Z,2.20
2023-07-20T08:10:14.061Z,2.20
2023-07-20T08:12:41.955Z,2.28
2023-07-20T08:15:12.298Z,2.50
2023-07-20T08:17:40.214Z,1.83
2023-07-20T08:20:10.977Z,2.03
2023-07-20T08:22:38.568Z,1.98
2023-07-20T08:25:07.493Z,2.03
2023-07-20T08:27:35.740Z,2.03
2023-07-20T08:30:03.970Z,2.13
2023-07-20T08:32:34.335Z,1.90
2023-07-20T08:35:02.334Z,1.80
2023-07-20T08:37:29.919Z,2.35
2023-07-20T08:39:57.430Z,2.00
2023-07-20T08:42:25.636Z,1.80
2023-07-20T08:44:54.296Z,1.83
2023-07-20T08:47:22.250Z,2.40
2023-07-20T08:49:50.139Z,2.22
2023-07-20T08:52:17.581Z,2.03
2023-07-20T08:54:45.228Z,2.20
2023-07-20T08:57:15.381Z,1.95
2023-07-20T08:59:42.955Z,2.10
2023-07-20T09:02:18.072Z,1.85
2023-07-20T09:04:46.603Z,2.10
2023-07-20T09:07:15.723Z,2.20
2023-07-20T09:09:43.528Z,2.50
2023-07-20T09:12:16.005Z,2.03
2023-07-20T09:14:46.803Z,2.55
2023-07-20T09:17:17.745Z,2.15
2023-07-20T09:19:49.673Z,2.07
2023-07-20T09:22:18.595Z,1.90
2023-07-20T09:24:46.373Z,2.10
2023-07-20T09:27:14.049Z,2.10
2023-07-20T09:29:52.424Z,1.98
2023-07-20T09:34:53.164Z,1.83
2023-07-20T09:37:24.785Z,2.10
2023-07-20T09:44:57.555Z,2.37
2023-07-20T09:55:04.867Z,2.50
2023-07-20T09:57:34.419Z,2.50
2023-07-20T10:02:44.556Z,2.22
2023-07-20T10:05:16.256Z,2.10
2023-07-20T10:08:51.964Z,2.45
2023-07-20T10:10:42.364Z,1.80
2023-07-20T10:13:22.506Z,1.77
2023-07-20T10:16:15.458Z,2.15
2023-07-20T10:18:49.789Z,2.40
2023-07-20T10:23:50.274Z,2.20
2023-07-20T10:26:18.044Z,2.72
2023-07-20T10:28:46.034Z,2.10
2023-07-20T10:31:15.370Z,1.52
2023-07-20T10:33:43.055Z,2.10
2023-07-20T10:36:13.866Z,1.57
2023-07-20T10:41:21.841Z,2.00
2023-07-20T10:43:50.486Z,1.62
2023-07-20T10:46:45.126Z,1.87
2023-07-20T10:49:14.065Z,1.73
2023-07-20T10:51:49.341Z,1.55
2023-07-20T10:54:17.315Z,1.73
2023-07-20T10:56:46.040Z,1.67
2023-07-20T10:59:25.697Z,2.22
2023-07-20T11:02:01.093Z,1.93
2023-07-20T11:04:42.018Z,1.80
2023-07-20T11:07:10.151Z,1.90
2023-07-20T11:09:39.405Z,1.80
2023-07-20T11:12:18.903Z,1.65
2023-07-20T11:14:57.445Z,1.90
2023-07-20T11:17:33.521Z,1.98
2023-07-20T11:22:34.279Z,1.90
2023-07-20T11:25:02.179Z,1.98
2023-07-20T11:27:30.023Z,1.60
2023-07-20T11:29:57.764Z,1.90
2023-07-20T11:32:25.926Z,1.83
2023-07-20T11:34:53.597Z,1.80
2023-07-20T11:37:21.221Z,1.95
2023-07-20T11:39:49.381Z,1.77
2023-07-20T11:44:52.703Z,2.00
2023-07-20T11:47:21.905Z,1.87
2023-07-20T11:49:55.504Z,2.15
2023-07-20T11:52:24.631Z,2.17
2023-07-20T11:54:53.371Z,1.85
2023-07-20T11:57:21.716Z,1.80
2023-07-20T12:00:02.637Z,2.00
2023-07-20T12:02:33.222Z,2.30
2023-07-20T12:05:01.151Z,1.80
2023-07-20T12:07:29.922Z,1.60
2023-07-20T12:10:07.961Z,1.98
2023-07-20T12:12:39.345Z,2.17
2023-07-20T12:15:33.140Z,1.95
2023-07-20T12:18:02.204Z,2.33
2023-07-20T12:20:29.655Z,1.73
2023-07-20T12:23:23.371Z,1.90
2023-07-20T12:25:51.181Z,1.65
2023-07-20T12:28:20.655Z,1.60
2023-07-20T12:30:57.316Z,1.80
2023-07-20T12:33:25.563Z,1.50
2023-07-20T12:35:57.005Z,1.92
2023-07-20T12:38:25.112Z,1.48
2023-07-20T12:40:52.656Z,1.90
2023-07-20T12:43:20.577Z,1.97
2023-07-20T12:45:48.421Z,1.85
2023-07-20T12:48:16.207Z,2.05
2023-07-20T12:50:43.909Z,1.62
2023-07-20T12:53:11.775Z,1.50
2023-07-20T12:55:40.616Z,1.43
2023-07-20T12:58:09.083Z,1.60
2023-07-20T13:00:37.140Z,2.20
2023-07-20T13:10:39.828Z,1.25
2023-07-20T13:13:08.306Z,1.70
2023-07-20T13:15:44.232Z,2.15
2023-07-20T13:18:12.089Z,1.80
2023-07-20T13:20:39.652Z,1.70
2023-07-20T13:23:07.218Z,1.60
2023-07-20T13:25:35.109Z,1.67
2023-07-20T13:28:02.592Z,1.58
2023-07-20T13:30:30.109Z,1.73
2023-07-20T13:32:58.465Z,2.10
2023-07-20T13:35:26.190Z,1.35
2023-07-20T13:37:53.808Z,1.58
2023-07-20T13:40:23.812Z,1.70
2023-07-20T13:42:51.639Z,1.55
2023-07-20T13:45:19.404Z,1.70
2023-07-20T13:47:50.918Z,1.77
2023-07-20T13:52:50.065Z,1.75
2023-07-20T13:56:20.656Z,1.55
2023-07-20T13:58:05.772Z,1.70
2023-07-20T14:00:35.363Z,1.58
2023-07-20T14:08:06.556Z,1.85
2023-07-20T14:10:34.248Z,1.60
2023-07-20T14:13:01.945Z,1.52
2023-07-20T14:15:29.761Z,1.73
2023-07-20T14:17:57.451Z,1.98
2023-07-20T14:20:25.152Z,1.90
2023-07-20T14:22:52.977Z,1.60
2023-07-20T14:25:20.738Z,1.80
2023-07-20T14:27:48.329Z,2.15
2023-07-20T14:30:16.167Z,1.60
2023-07-20T14:32:44.784Z,1.90
2023-07-20T14:35:12.459Z,1.63
2023-07-20T14:37:40.360Z,1.42
2023-07-20T14:40:09.301Z,1.45
2023-07-20T14:42:37.338Z,1.77
2023-07-20T14:45:06.697Z,1.80
2023-07-20T14:47:36.421Z,1.37
2023-07-20T14:50:04.427Z,1.65
2023-07-20T14:52:32.403Z,1.95
2023-07-20T14:54:59.978Z,1.60
2023-07-20T14:57:27.550Z,1.98
2023-07-20T14:59:55.408Z,1.90
2023-07-20T15:02:23.235Z,1.90
2023-07-20T15:04:52.121Z,1.92
2023-07-20T15:07:21.290Z,1.80
2023-07-20T15:09:48.994Z,1.45
2023-07-20T15:12:16.501Z,1.70
2023-07-20T15:14:45.044Z,1.40
2023-07-20T15:17:12.804Z,2.08
2023-07-20T15:19:40.388Z,1.70
2023-07-20T15:22:09.684Z,1.73
2023-07-20T15:24:37.553Z,1.40
2023-07-20T15:27:05.561Z,1.80
2023-07-20T15:32:04.488Z,2.03
2023-07-20T15:34:32.218Z,1.77
2023-07-20T15:36:59.987Z,1.57
2023-07-20T15:39:28.453Z,1.35
2023-07-20T15:41:56.611Z,1.90
2023-07-20T15:44:24.393Z,1.37
2023-07-20T15:46:52.101Z,1.77
2023-07-20T15:49:19.697Z,1.83
2023-07-20T15:51:47.850Z,1.75
2023-07-20T15:54:15.941Z,1.55
2023-07-20T15:56:44.267Z,1.60
2023-07-20T15:59:13.480Z,1.70
2023-07-20T16:01:42.750Z,1.40
2023-07-20T16:04:10.980Z,1.62
2023-07-20T16:06:38.959Z,1.52
2023-07-20T16:09:06.853Z,2.00
2023-07-20T16:11:37.682Z,1.52
2023-07-20T16:14:07.418Z,1.80
2023-07-20T16:16:36.503Z,1.77
2023-07-20T16:19:04.685Z,1.90
2023-07-20T16:21:33.503Z,1.62
2023-07-20T16:24:01.684Z,1.73
2023-07-20T16:26:29.104Z,1.53
2023-07-20T16:31:27.670Z,1.60
2023-07-20T16:34:06.029Z,1.35
2023-07-20T16:44:07.753Z,1.70
2023-07-20T16:49:06.182Z,1.42
2023-07-20T16:51:35.229Z,1.70
2023-07-20T16:54:04.325Z,1.23
2023-07-20T16:56:32.175Z,1.65
2023-07-20T16:58:59.701Z,1.60
2023-07-20T17:01:27.591Z,1.67
2023-07-20T17:03:55.675Z,1.73
2023-07-20T17:06:23.341Z,1.62
2023-07-20T17:08:50.798Z,1.60
2023-07-20T17:11:18.964Z,1.48
2023-07-20T17:13:46.479Z,1.87
2023-07-20T17:16:13.979Z,1.80
2023-07-20T17:18:41.740Z,1.62
2023-07-20T17:21:09.204Z,1.70
2023-07-20T17:31:08.564Z,1.70
2023-07-20T17:33:36.235Z,1.65
2023-07-20T17:41:08.396Z,1.40
2023-07-20T17:43:36.174Z,1.60
2023-07-20T17:48:34.578Z,1.48
2023-07-20T17:51:02.600Z,1.70
2023-07-20T17:53:30.429Z,2.13
2023-07-20T17:55:57.979Z,1.62
2023-07-20T17:58:25.906Z,1.55
2023-07-20T18:00:54.005Z,2.22
2023-07-20T18:03:21.888Z,1.90
2023-07-20T18:05:49.588Z,2.10
2023-07-20T18:08:17.149Z,1.70
2023-07-20T18:10:45.221Z,1.95
2023-07-20T18:13:12.702Z,2.08
2023-07-20T18:15:40.249Z,2.10
2023-07-20T18:18:08.421Z,1.90
2023-07-20T18:20:36.385Z,1.58
2023-07-20T18:23:06.710Z,1.60
2023-07-20T18:25:34.584Z,1.60
2023-07-20T18:28:02.164Z,1.80
2023-07-20T18:30:34.221Z,1.40
2023-07-20T18:33:02.572Z,1.75
2023-07-20T18:35:31.097Z,1.95
2023-07-20T18:37:58.816Z,1.80
2023-07-20T18:40:27.042Z,1.80
2023-07-20T18:42:55.117Z,1.63
2023-07-20T18:45:22.640Z,1.80
2023-07-20T18:47:50.620Z,1.58
2023-07-20T18:50:18.410Z,1.30
2023-07-20T18:52:46.226Z,1.75
2023-07-20T18:55:14.069Z,1.63
2023-07-20T18:57:42.168Z,1.35
2023-07-20T19:00:11.219Z,1.58
2023-07-20T19:02:39.318Z,2.05
2023-07-20T19:05:07.288Z,1.60
2023-07-20T19:07:34.862Z,1.90
2023-07-20T19:10:05.208Z,2.03
2023-07-20T19:12:32.982Z,1.60
2023-07-20T19:15:01.409Z,1.70
2023-07-20T19:17:30.532Z,1.70
2023-07-20T19:19:58.277Z,1.57
2023-07-20T19:22:25.838Z,1.48
2023-07-20T19:24:53.626Z,1.83
2023-07-20T19:27:21.141Z,1.80
2023-07-20T19:29:48.850Z,1.80
2023-07-20T19:32:16.698Z,1.60
2023-07-20T19:34:44.240Z,1.75
2023-07-20T19:37:12.602Z,1.80
2023-07-20T19:39:40.469Z,1.75
2023-07-20T19:42:08.313Z,2.03
2023-07-20T19:44:35.897Z,1.40
2023-07-20T19:47:04.080Z,1.87
2023-07-20T19:49:31.724Z,1.50
2023-07-20T19:51:59.484Z,1.60
2023-07-20T19:56:57.881Z,1.30
2023-07-20T19:59:25.391Z,1.50
2023-07-20T20:01:53.244Z,1.58
2023-07-20T20:06:51.515Z,1.48
2023-07-20T20:09:19.066Z,1.50
2023-07-20T20:11:50.262Z,1.40
2023-07-20T20:14:18.845Z,1.55
2023-07-20T20:16:46.962Z,1.20
2023-07-20T20:19:14.769Z,1.27
2023-07-20T20:21:42.291Z,1.30
2023-07-20T20:24:10.094Z,1.20
2023-07-20T20:26:39.988Z,1.25
2023-07-20T20:29:08.000Z,1.50
2023-07-20T20:31:35.893Z,1.30
2023-07-20T20:34:03.397Z,1.10
2023-07-20T20:36:30.882Z,1.08
2023-07-20T20:38:59.082Z,1.48
2023-07-20T20:41:30.770Z,1.00
2023-07-20T20:43:58.471Z,1.30
2023-07-20T20:46:26.612Z,1.63
2023-07-20T20:48:54.384Z,1.58
2023-07-20T20:51:21.984Z,1.35
2023-07-20T20:53:49.866Z,1.02
2023-07-20T20:56:17.715Z,1.20
2023-07-20T20:58:45.267Z,1.30
2023-07-20T21:01:13.174Z,1.75
2023-07-20T21:03:40.800Z,1.27
2023-07-20T21:06:08.295Z,1.20
2023-07-20T21:08:36.016Z,1.33
2023-07-20T21:11:03.511Z,1.33
2023-07-20T21:13:31.089Z,1.12
2023-07-20T21:15:58.906Z,1.65
2023-07-20T21:18:26.729Z,1.12
2023-07-20T21:20:54.267Z,1.12
2023-07-20T21:23:22.476Z,1.33
2023-07-20T21:25:50.164Z,1.27
2023-07-20T21:28:20.390Z,1.25
2023-07-20T21:31:03.570Z,1.20
2023-07-20T21:33:31.988Z,0.90
2023-07-20T21:36:00.010Z,1.23
2023-07-20T21:38:27.707Z,1.27
2023-07-20T21:40:55.288Z,1.40
2023-07-20T21:43:23.078Z,1.17
2023-07-20T21:45:50.566Z,1.27
2023-07-20T21:48:18.646Z,1.30
2023-07-20T21:50:50.677Z,1.20
2023-07-20T21:53:18.237Z,1.27
2023-07-20T21:55:49.012Z,1.08
2023-07-20T21:58:20.446Z,1.40
2023-07-20T22:00:52.045Z,1.10
2023-07-20T22:03:21.762Z,1.15
2023-07-20T22:05:56.715Z,1.35
2023-07-20T22:08:25.146Z,1.10
2023-07-20T22:10:53.333Z,1.20
2023-07-20T22:13:21.926Z,1.40
2023-07-20T22:15:52.688Z,1.02
2023-07-20T22:20:51.289Z,1.52
2023-07-20T22:23:18.915Z,1.35
2023-07-20T22:25:47.047Z,1.10
2023-07-20T22:28:14.895Z,1.30
2023-07-20T22:30:42.464Z,1.35
2023-07-20T22:33:09.970Z,1.20
2023-07-20T22:35:37.778Z,1.37
2023-07-20T22:38:05.368Z,1.50
2023-07-20T22:40:35.015Z,1.20
2023-07-20T22:43:03.116Z,1.52
2023-07-20T22:45:32.149Z,1.55
2023-07-20T22:47:59.753Z,1.62
2023-07-20T22:50:27.672Z,1.70
2023-07-20T22:52:55.252Z,1.40
2023-07-20T22:55:22.815Z,1.23
2023-07-20T22:57:52.454Z,1.52
2023-07-20T23:00:27.724Z,2.10
2023-07-20T23:02:56.960Z,1.33
2023-07-20T23:05:25.925Z,1.42
2023-07-20T23:07:55.256Z,1.37
2023-07-20T23:10:23.204Z,1.30
2023-07-20T23:12:51.325Z,1.30
2023-07-20T23:15:19.015Z,1.27
2023-07-20T23:17:49.398Z,1.20
2023-07-20T23:20:20.430Z,1.35
2023-07-20T23:22:52.539Z,1.00
2023-07-20T23:25:22.368Z,1.20
2023-07-20T23:27:56.738Z,1.17
2023-07-20T23:30:24.686Z,1.40
2023-07-20T23:32:53.771Z,1.00
2023-07-20T23:35:22.651Z,1.12
2023-07-20T23:37:51.608Z,1.23
2023-07-20T23:40:19.896Z,1.20
2023-07-20T23:42:48.256Z,1.25
2023-07-20T23:45:16.197Z,1.37
2023-07-20T23:47:44.233Z,1.10
2023-07-20T23:50:12.428Z,1.30
2023-07-20T23:52:41.350Z,1.10
2023-07-20T23:55:10.121Z,1.20
2023-07-20T23:57:39.133Z,1.23
